PDT,Max TemperatureF,Mean TemperatureF,Min TemperatureF,Max Dew PointF,MeanDew PointF,Min DewpointF,Max Humidity, Mean Humidity, Min Humidity, Max Sea Level PressureIn, Mean Sea Level PressureIn, Min Sea Level PressureIn, Max VisibilityMiles, Mean VisibilityMiles, Min VisibilityMiles, Max Wind SpeedMPH, Mean Wind SpeedMPH, Max Gust SpeedMPH,PrecipitationIn, CloudCover, Events, WindDirDegrees
2011-10-1,103,90,77,53,48,45,42,29,15,29.88,29.84,29.78,10,10,10,14,5,18,0.00,1,,202
2011-10-2,102,88,74,55,50,45,53,34,15,29.91,29.85,29.79,10,10,10,17,3,22,0.00,1,,301
2011-10-3,97,85,73,58,51,47,57,39,20,29.83,29.78,29.73,10,10,10,28,5,32,0.00,1,,314
2011-10-4,116,92,67,49,46,41,49,29,9,29.82,29.78,29.73,10,10,10,28,8,37,0.00,2,,307
2011-10-5,77,69,60,56,49,40,64,52,39,29.83,29.76,29.66,10,10,10,18,4,25,T,4,Rain,94
2011-10-6,76,66,55,41,37,33,47,34,21,29.86,29.79,29.73,10,10,10,25,9,32,0.00,1,,334
2011-10-7,81,68,55,43,35,25,55,35,14,30.01,29.97,29.88,10,10,10,22,5,30,0.00,0,,292
2011-10-8,88,73,58,44,36,29,48,31,13,30.02,29.97,29.88,10,10,10,14,5,16,0.00,0,,311
2011-10-9,88,74,60,39,34,28,37,25,12,29.97,29.90,29.82,10,10,10,9,5,18,0.00,1,,278
2011-10-10,91,77,63,43,37,33,37,26,14,29.90,29.84,29.77,10,10,10,13,6,15,0.00,0,,337
2011-10-11,95,79,63,48,41,36,45,30,15,29.87,29.83,29.77,10,10,10,10,4,13,0.00,0,,14
2011-10-12,102,85,68,47,40,34,44,28,11,29.90,29.85,29.79,10,10,10,9,4,14,0.00,0,,287
2011-10-13,104,87,70,39,29,15,22,13,4,29.86,29.80,29.72,10,10,10,12,5,14,0.00,0,,333
2011-10-14,97,83,69,48,41,32,27,19,11,29.83,29.78,29.75,10,10,10,12,5,14,0.00,1,,355
2011-10-15,100,84,67,52,46,34,51,31,11,29.87,29.81,29.75,10,10,10,13,4,15,0.00,0,,273
2011-10-16,102,85,67,52,43,33,51,31,10,29.90,29.86,29.82,10,10,10,18,2,26,0.00,0,,290
2011-10-17,102,86,69,51,41,30,46,28,9,29.98,29.92,29.87,10,10,10,9,2,14,0.00,0,,257
2011-10-18,99,86,72,45,37,27,35,22,8,29.99,29.91,29.84,10,10,10,13,5,14,0.00,0,,310
2011-10-19,98,82,65,46,38,30,41,26,10,29.85,29.79,29.72,10,10,10,17,6,21,0.00,0,,314
2011-10-20,93,79,64,50,42,34,52,32,12,29.93,29.86,29.81,10,10,10,13,3,,0.00,0,,16
2011-10-21,91,77,63,52,47,41,60,39,18,30.02,29.97,29.93,10,10,9,14,6,17,0.00,0,,5
2011-10-22,98,82,66,45,36,29,42,26,9,30.01,29.95,29.88,10,10,10,9,5,10,0.00,0,,305
2011-10-23,97,84,70,39,33,25,23,16,8,29.94,29.90,29.84,10,10,10,13,6,15,0.00,0,,7
2011-10-24,92,79,65,50,43,35,48,32,15,29.94,29.89,29.86,10,10,10,15,4,21,0.00,3,,290
2011-10-25,79,71,63,53,50,47,67,50,33,29.91,29.86,29.80,10,10,10,28,10,33,0.00,0,,305
2011-10-26,81,71,61,50,30,-5,65,38,11,30.02,29.92,29.82,10,10,10,23,10,30,0.00,0,,314
2011-10-27,80,67,53,18,10,3,19,13,6,30.06,30.01,29.94,10,10,10,12,4,15,0.00,0,,291
2011-10-28,84,69,53,30,17,7,18,12,6,30.10,30.03,29.98,10,10,10,9,4,14,0.00,1,,345
2011-10-29,90,74,58,31,20,11,26,16,5,30.04,29.99,29.93,10,10,10,9,5,21,0.00,0,,319
2011-10-30,92,76,59,33,22,17,20,14,7,30.03,29.99,29.94,10,10,10,12,7,15,0.00,0,,357
2011-10-31,91,77,63,37,27,24,23,16,9,29.99,29.91,29.84,10,10,10,12,7,14,0.00,0,,348